createdAt,value
2018-07-30T00:00:50.711Z,94192.21
2018-07-30T00:15:51.395Z,94198.94
2018-07-30T00:30:50.807Z,94197.58
2018-07-30T00:45:52.842Z,94201.05
2018-07-30T01:00:51.519Z,94208.18
2018-07-30T01:15:51.573Z,94201.82
2018-07-30T01:30:52.191Z,94197.98
2018-07-30T01:45:50.758Z,94188.80
2018-07-30T02:00:50.205Z,94209.90
2018-07-30T02:15:51.684Z,94207.02
2018-07-30T02:30:50.600Z,94213.37
2018-07-30T02:45:50.984Z,94217.00
2018-07-30T03:00:50.795Z,94221.64
2018-07-30T03:15:51.012Z,94230.09
2018-07-30T03:30:51.260Z,94236.42
2018-07-30T03:45:51.035Z,94239.11
2018-07-30T04:00:52.424Z,94236.43
2018-07-30T04:15:50.374Z,94252.48
2018-07-30T04:30:50.465Z,94258.05
2018-07-30T04:45:50.466Z,94260.34
2018-07-30T05:00:50.495Z,94272.76
2018-07-30T05:15:50.887Z,94275.08
2018-07-30T05:30:50.961Z,94270.08
2018-07-30T05:45:50.819Z,94261.37
2018-07-30T06:00:50.892Z,94263.23
2018-07-30T06:15:50.334Z,94273.95
2018-07-30T06:30:50.288Z,94278.30
2018-07-30T06:45:51.167Z,94276.55
2018-07-30T07:00:50.237Z,94288.71
2018-07-30T07:15:50.699Z,94296.28
2018-07-30T07:30:51.225Z,94284.27
2018-07-30T07:45:50.776Z,94277.91
2018-07-30T08:00:50.622Z,94284.16
2018-07-30T08:15:51.935Z,94269.48
2018-07-30T08:30:54.301Z,94273.50
2018-07-30T08:45:51.345Z,94264.13
2018-07-30T09:00:51.033Z,94260.97
2018-07-30T09:15:50.473Z,94249.05
2018-07-30T09:30:50.463Z,94244.30
2018-07-30T09:45:50.556Z,94225.28
2018-07-30T10:00:56.611Z,94219.12
2018-07-30T10:15:50.935Z,94200.84
2018-07-30T10:30:52.539Z,94199.73
2018-07-30T10:45:51.143Z,94229.66
2018-07-30T11:00:50.907Z,94213.02
2018-07-30T11:15:51.289Z,94231.09
2018-07-30T11:30:51.304Z,94252.35
2018-07-30T11:45:51.296Z,94224.39
2018-07-30T12:00:51.785Z,94245.02
2018-07-30T12:15:50.732Z,94255.42
2018-07-30T12:30:50.741Z,94243.08
2018-07-30T12:45:50.727Z,94229.75
2018-07-30T13:00:50.820Z,94227.64
2018-07-30T13:15:51.112Z,94227.48
2018-07-30T13:30:53.102Z,94222.64
2018-07-30T13:45:51.146Z,94219.03
2018-07-30T14:00:50.140Z,94218.20
2018-07-30T14:15:50.540Z,94195.19
2018-07-30T14:30:50.969Z,94188.19
2018-07-30T14:45:50.457Z,94187.06
2018-07-30T15:00:50.444Z,94207.49
2018-07-30T15:15:50.902Z,94221.37
2018-07-30T15:30:50.471Z,94218.42
2018-07-30T15:45:50.963Z,94238.50
2018-07-30T16:00:51.032Z,94254.08
2018-07-30T16:15:57.532Z,94253.88
2018-07-30T16:30:56.829Z,94274.81
2018-07-30T16:45:53.279Z,94266.52
2018-07-30T17:00:51.303Z,94268.77
2018-07-30T17:15:50.782Z,94282.26
2018-07-30T17:30:50.272Z,94289.36
2018-07-30T17:45:50.959Z,94310.69
2018-07-30T18:00:51.215Z,94313.66
2018-07-30T18:15:50.972Z,94310.07
2018-07-30T18:30:51.508Z,94313.89
2018-07-30T18:45:54.233Z,94327.97
2018-07-30T19:00:51.259Z,94348.04
2018-07-30T19:15:50.574Z,94363.89
2018-07-30T19:30:50.570Z,94357.16
2018-07-30T19:45:51.076Z,94369.84
2018-07-30T20:00:51.093Z,94380.02
2018-07-30T20:15:51.005Z,94397.11
2018-07-30T20:30:51.909Z,94400.36
2018-07-30T20:45:50.989Z,94399.05
2018-07-30T21:00:50.901Z,94386.77
2018-07-30T21:15:53.313Z,94400.59
2018-07-30T21:30:51.324Z,94393.31
2018-07-30T21:45:51.364Z,94395.44
2018-07-30T22:00:57.040Z,94399.30
2018-07-30T22:15:50.835Z,94385.64
2018-07-30T22:30:50.571Z,94391.22
2018-07-30T22:45:50.870Z,94393.14
2018-07-30T23:00:50.885Z,94377.02
2018-07-30T23:15:51.028Z,94374.74
2018-07-30T23:30:51.135Z,94359.56
2018-07-30T23:45:50.959Z,94365.09
